Архив погоды в Вологде

Метеограмма Вологда
Четверг, 26 Апреля
Время местн. Темп Ветер Видим Явления Облачность нижн/средн/верх Атм. давл. Влжн Точка росы ВНГО R Сост. почвы Tg s
Напр Скр Прв ур.ст ур.м изм
06:00 +5.1° Ю 2 - 20 км - облачно 739 750 -0.6 91% +3.7° 600 м 1 Влажная (без луж) +4° -
03:00 +5° Ю 3 - 20 км небо без изменений {дождь} облачно 739 751 -1 86% +2.8° 600 м - - - -
00:00 +4.7° Ю 2 - 20 км небо без изменений {дождь} облачно 740 752 -0.9 82% +1.9° 1.5 км - - - -
Среда, 25 Апреля
Время местн. Темп Ветер Видим Явления Облачность нижн/средн/верх Атм. давл. Влжн Точка росы ВНГО R Сост. почвы Tg s
Напр Скр Прв ур.ст ур.м изм
21:00 +6.3° Ю 4 - 20 км облака развиваются {дождь} облачно 741 753 -0.7 66% +0.4° 1 км - - - -
18:00 +6.6° Ю 4 11 10 км слабый непрерывный дождь облачно 742 754 -0.6 69% +1.4° 600 м 0.1 - - -
15:00 +8.6° Ю 6 12 20 км - облачно 742 754 -0.3 48% -1.7° 2.5 км - - - -
12:00 +9.8° Ю 5 - 20 км - облачно 743 754 -0.7 30% -7.1° - - - - -
09:00 +7.1° Ю-В 3 - 20 км - преимущественно облачно 743 755 -0.9 35% -7.4° 2.5 км - - - -
06:00 -0.4° Ю-В 2 - 20 км - переменная облачность 744 756 -0.5 61% -6.9° 1 км - Замерзшая - -
03:00 -1.3° Ю-В 2 - 20 км - ясно 745 757 -0.6 60% -8.1° более 2.5 км - - - -
00:00 -0.2° В,Ю-В 2 - 20 км - ясно 745 758 -0.6 60% -7° более 2.5 км - - - -
Вторник, 24 Апреля
Время местн. Темп Ветер Видим Явления Облачность нижн/средн/верх Атм. давл. Влжн Точка росы ВНГО R Сост. почвы Tg s
Напр Скр Прв ур.ст ур.м изм
21:00 +2.5° Ю,Ю-В 2 - 20 км - ясно 746 758 -0.2 45% -8.3° более 2.5 км - - - -
18:00 +7.9° В,Ю-В 2 - 20 км - незначительная облачность 746 758 -1.3 27% -9.8° более 2.5 км - - - -
15:00 +7.6° С,С-З 1 - 20 км - ясно 747 759 -1 24% -11.7° более 2.5 км - - - -
12:00 +5.3° Ю-З 2 - 20 км - ясно 748 760 -0.6 30% -11° более 2.5 км - - - -
09:00 +3° С-З 1 - 20 км - ясно 749 761 +0.1 41% -8.9° более 2.5 км - - - -
06:00 -3.5° С 1 - 20 км - ясно 749 761 +0.4 81% -6.3° более 2.5 км - Замерзшая - -
03:00 -5.4° С 2 - 20 км - ясно 749 761 +0.3 85% -7.5° более 2.5 км - - - -
00:00 -4.1° С-З 1 - 20 км - ясно 748 761 +0.2 80% -7.1° более 2.5 км - - - -
Понедельник, 23 Апреля
Время местн. Темп Ветер Видим Явления Облачность нижн/средн/верх Атм. давл. Влжн Точка росы ВНГО R Сост. почвы Tg s
Напр Скр Прв ур.ст ур.м изм
21:00 -0.3° С-З 3 - 20 км - ясно 748 760 +0.6 61% -6.9° более 2.5 км - - - -
18:00 +3.7° С-З 6 - 20 км - переменная облачность 747 760 0 40% -8.7° 1 км - - - -
15:00 +4° С-З 8 12 20 км - переменная облачность 747 759 +0.2 39% -8.7° 1 км - - - -
12:00 +3° С-З 7 12 20 км - переменная облачность 747 759 -0.1 40% -9.4° 1 км - - - -
09:00 +0.9° С 5 - 20 км - ясно 747 760 +0.7 40% -11.1° более 2.5 км - - - -
06:00 -2.9° С,С-З 3 - 20 км - ясно 747 759 +0.9 62% -9.1° более 2.5 км 0 Замерзшая -3° -
03:00 -2.7° С 3 - 20 км - ясно 746 758 +1 56% -10.2° более 2.5 км - - - -